sensor_id;sensor_type;location;lat;lon;timestamp;P1;durP1;ratioP1;P2;durP2;ratioP2
35971;SDS011;22052;0.000;0.000;2023-02-04T00:01:07;10.98;;;3.20;;
35971;SDS011;22052;0.000;0.000;2023-02-04T00:03:33;13.98;;;3.30;;
35971;SDS011;22052;0.000;0.000;2023-02-04T00:05:59;15.27;;;3.50;;
35971;SDS011;22052;0.000;0.000;2023-02-04T00:08:26;11.45;;;3.55;;
35971;SDS011;22052;0.000;0.000;2023-02-04T00:10:52;12.70;;;3.47;;
35971;SDS011;22052;0.000;0.000;2023-02-04T00:13:18;9.73;;;3.67;;
35971;SDS011;22052;0.000;0.000;2023-02-04T00:15:44;10.88;;;3.60;;
35971;SDS011;22052;0.000;0.000;2023-02-04T00:18:10;8.05;;;3.40;;
35971;SDS011;22052;0.000;0.000;2023-02-04T00:20:36;8.93;;;3.25;;
35971;SDS011;22052;0.000;0.000;2023-02-04T00:23:02;13.80;;;3.50;;
35971;SDS011;22052;0.000;0.000;2023-02-04T00:25:29;7.45;;;3.30;;
35971;SDS011;22052;0.000;0.000;2023-02-04T00:27:55;9.02;;;2.83;;
35971;SDS011;22052;0.000;0.000;2023-02-04T00:30:21;11.55;;;3.10;;
35971;SDS011;22052;0.000;0.000;2023-02-04T00:32:47;10.57;;;3.25;;
35971;SDS011;22052;0.000;0.000;2023-02-04T00:35:18;11.95;;;3.25;;
35971;SDS011;22052;0.000;0.000;2023-02-04T00:37:44;11.25;;;3.45;;
35971;SDS011;22052;0.000;0.000;2023-02-04T00:40:11;14.63;;;3.30;;
35971;SDS011;22052;0.000;0.000;2023-02-04T00:42:37;11.07;;;3.40;;
35971;SDS011;22052;0.000;0.000;2023-02-04T00:45:03;8.80;;;2.85;;
35971;SDS011;22052;0.000;0.000;2023-02-04T00:47:29;8.82;;;3.00;;
35971;SDS011;22052;0.000;0.000;2023-02-04T00:49:56;10.95;;;2.80;;
35971;SDS011;22052;0.000;0.000;2023-02-04T00:52:22;9.27;;;3.05;;
35971;SDS011;22052;0.000;0.000;2023-02-04T00:54:48;8.23;;;2.67;;
35971;SDS011;22052;0.000;0.000;2023-02-04T00:57:14;7.80;;;2.95;;
35971;SDS011;22052;0.000;0.000;2023-02-04T00:59:40;7.72;;;2.72;;
35971;SDS011;22052;0.000;0.000;2023-02-04T01:02:07;7.97;;;2.83;;
35971;SDS011;22052;0.000;0.000;2023-02-04T01:04:33;9.10;;;2.90;;
35971;SDS011;22052;0.000;0.000;2023-02-04T01:06:59;9.82;;;3.08;;
35971;SDS011;22052;0.000;0.000;2023-02-04T01:09:25;8.82;;;2.90;;
35971;SDS011;22052;0.000;0.000;2023-02-04T01:11:51;5.50;;;2.53;;
35971;SDS011;22052;0.000;0.000;2023-02-04T01:14:17;9.38;;;2.60;;
35971;SDS011;22052;0.000;0.000;2023-02-04T01:16:44;8.13;;;3.05;;
35971;SDS011;22052;0.000;0.000;2023-02-04T01:19:10;7.22;;;3.08;;
35971;SDS011;22052;0.000;0.000;2023-02-04T01:21:36;6.97;;;2.40;;
35971;SDS011;22052;0.000;0.000;2023-02-04T01:24:02;6.53;;;2.60;;
35971;SDS011;22052;0.000;0.000;2023-02-04T01:26:29;6.13;;;2.70;;
35971;SDS011;22052;0.000;0.000;2023-02-04T01:28:55;4.93;;;2.30;;
35971;SDS011;22052;0.000;0.000;2023-02-04T01:31:21;8.45;;;2.83;;
35971;SDS011;22052;0.000;0.000;2023-02-04T01:33:47;6.72;;;2.60;;
35971;SDS011;22052;0.000;0.000;2023-02-04T01:36:14;9.00;;;2.70;;
35971;SDS011;22052;0.000;0.000;2023-02-04T01:38:46;7.35;;;2.60;;
35971;SDS011;22052;0.000;0.000;2023-02-04T01:41:12;6.97;;;2.45;;
35971;SDS011;22052;0.000;0.000;2023-02-04T01:43:39;9.88;;;2.95;;
35971;SDS011;22052;0.000;0.000;2023-02-04T01:46:05;5.93;;;2.50;;
35971;SDS011;22052;0.000;0.000;2023-02-04T01:48:31;5.18;;;2.30;;
35971;SDS011;22052;0.000;0.000;2023-02-04T01:51:02;5.68;;;2.28;;
35971;SDS011;22052;0.000;0.000;2023-02-04T01:53:29;6.93;;;2.70;;
35971;SDS011;22052;0.000;0.000;2023-02-04T01:55:56;4.65;;;2.47;;
35971;SDS011;22052;0.000;0.000;2023-02-04T01:58:22;6.25;;;2.65;;
35971;SDS011;22052;0.000;0.000;2023-02-04T02:00:49;8.85;;;2.80;;
35971;SDS011;22052;0.000;0.000;2023-02-04T02:03:15;5.72;;;2.28;;
35971;SDS011;22052;0.000;0.000;2023-02-04T02:05:51;4.78;;;2.58;;
35971;SDS011;22052;0.000;0.000;2023-02-04T02:08:18;6.75;;;2.65;;
35971;SDS011;22052;0.000;0.000;2023-02-04T02:10:45;7.63;;;2.55;;
35971;SDS011;22052;0.000;0.000;2023-02-04T02:13:12;5.30;;;2.70;;
35971;SDS011;22052;0.000;0.000;2023-02-04T02:15:39;5.45;;;2.25;;
35971;SDS011;22052;0.000;0.000;2023-02-04T02:18:06;5.45;;;2.03;;
35971;SDS011;22052;0.000;0.000;2023-02-04T02:20:32;5.07;;;2.47;;
35971;SDS011;22052;0.000;0.000;2023-02-04T02:25:34;5.28;;;2.33;;
35971;SDS011;22052;0.000;0.000;2023-02-04T02:28:00;6.25;;;2.50;;
35971;SDS011;22052;0.000;0.000;2023-02-04T02:30:27;5.72;;;2.47;;
35971;SDS011;22052;0.000;0.000;2023-02-04T02:32:54;6.68;;;2.42;;
35971;SDS011;22052;0.000;0.000;2023-02-04T02:35:21;4.20;;;1.90;;
35971;SDS011;22052;0.000;0.000;2023-02-04T02:37:48;5.95;;;2.63;;
35971;SDS011;22052;0.000;0.000;2023-02-04T02:40:14;5.22;;;2.25;;
35971;SDS011;22052;0.000;0.000;2023-02-04T02:42:41;7.30;;;2.10;;
35971;SDS011;22052;0.000;0.000;2023-02-04T02:45:27;6.30;;;2.10;;
35971;SDS011;22052;0.000;0.000;2023-02-04T02:47:54;4.97;;;1.88;;
35971;SDS011;22052;0.000;0.000;2023-02-04T02:50:22;4.40;;;2.00;;
35971;SDS011;22052;0.000;0.000;2023-02-04T02:52:48;4.53;;;1.95;;
35971;SDS011;22052;0.000;0.000;2023-02-04T02:55:16;4.70;;;2.08;;
35971;SDS011;22052;0.000;0.000;2023-02-04T02:57:43;4.00;;;2.00;;
35971;SDS011;22052;0.000;0.000;2023-02-04T03:00:17;4.18;;;2.10;;
35971;SDS011;22052;0.000;0.000;2023-02-04T03:02:44;4.63;;;2.10;;
35971;SDS011;22052;0.000;0.000;2023-02-04T03:05:12;4.45;;;1.95;;
35971;SDS011;22052;0.000;0.000;2023-02-04T03:07:38;4.53;;;2.30;;
35971;SDS011;22052;0.000;0.000;2023-02-04T03:10:05;4.25;;;2.08;;
35971;SDS011;22052;0.000;0.000;2023-02-04T03:12:31;4.70;;;2.15;;
35971;SDS011;22052;0.000;0.000;2023-02-04T03:14:57;8.13;;;2.10;;
35971;SDS011;22052;0.000;0.000;2023-02-04T03:17:23;4.78;;;2.08;;
35971;SDS011;22052;0.000;0.000;2023-02-04T03:19:50;6.18;;;2.20;;
35971;SDS011;22052;0.000;0.000;2023-02-04T03:22:16;5.75;;;2.10;;
35971;SDS011;22052;0.000;0.000;2023-02-04T03:24:42;5.38;;;1.98;;
35971;SDS011;22052;0.000;0.000;2023-02-04T03:27:08;4.25;;;1.58;;
35971;SDS011;22052;0.000;0.000;2023-02-04T03:29:39;3.67;;;1.60;;
35971;SDS011;22052;0.000;0.000;2023-02-04T03:32:07;4.20;;;1.80;;
35971;SDS011;22052;0.000;0.000;2023-02-04T03:34:33;4.63;;;2.00;;
35971;SDS011;22052;0.000;0.000;2023-02-04T03:36:59;5.45;;;1.80;;
35971;SDS011;22052;0.000;0.000;2023-02-04T03:39:25;3.95;;;1.63;;
35971;SDS011;22052;0.000;0.000;2023-02-04T03:41:51;4.82;;;1.77;;
35971;SDS011;22052;0.000;0.000;2023-02-04T03:44:18;3.97;;;1.75;;
35971;SDS011;22052;0.000;0.000;2023-02-04T03:46:45;2.58;;;1.58;;
35971;SDS011;22052;0.000;0.000;2023-02-04T03:49:11;3.17;;;1.75;;
35971;SDS011;22052;0.000;0.000;2023-02-04T03:51:38;3.20;;;1.60;;
35971;SDS011;22052;0.000;0.000;2023-02-04T03:54:04;3.40;;;1.70;;
35971;SDS011;22052;0.000;0.000;2023-02-04T03:56:30;5.43;;;2.10;;
35971;SDS011;22052;0.000;0.000;2023-02-04T03:58:56;3.08;;;1.70;;
35971;SDS011;22052;0.000;0.000;2023-02-04T04:01:22;3.63;;;1.80;;
35971;SDS011;22052;0.000;0.000;2023-02-04T04:03:48;4.18;;;1.63;;
35971;SDS011;22052;0.000;0.000;2023-02-04T04:06:15;3.13;;;1.70;;
35971;SDS011;22052;0.000;0.000;2023-02-04T04:08:41;5.82;;;1.88;;
35971;SDS011;22052;0.000;0.000;2023-02-04T04:11:07;2.78;;;1.50;;
35971;SDS011;22052;0.000;0.000;2023-02-04T04:13:33;3.85;;;1.65;;
35971;SDS011;22052;0.000;0.000;2023-02-04T04:15:59;4.53;;;1.75;;
35971;SDS011;22052;0.000;0.000;2023-02-04T04:18:27;3.78;;;1.90;;
35971;SDS011;22052;0.000;0.000;2023-02-04T04:20:53;3.67;;;1.50;;
35971;SDS011;22052;0.000;0.000;2023-02-04T04:23:19;3.30;;;1.48;;
35971;SDS011;22052;0.000;0.000;2023-02-04T04:25:45;3.53;;;1.90;;
35971;SDS011;22052;0.000;0.000;2023-02-04T04:28:12;3.47;;;1.70;;
35971;SDS011;22052;0.000;0.000;2023-02-04T04:30:38;4.53;;;1.70;;
35971;SDS011;22052;0.000;0.000;2023-02-04T04:33:04;2.97;;;1.58;;
35971;SDS011;22052;0.000;0.000;2023-02-04T04:35:30;3.38;;;1.67;;
35971;SDS011;22052;0.000;0.000;2023-02-04T04:37:56;3.08;;;1.48;;
35971;SDS011;22052;0.000;0.000;2023-02-04T04:40:22;2.88;;;1.40;;
35971;SDS011;22052;0.000;0.000;2023-02-04T04:42:49;2.40;;;1.30;;
35971;SDS011;22052;0.000;0.000;2023-02-04T04:45:15;4.00;;;1.55;;
35971;SDS011;22052;0.000;0.000;2023-02-04T04:47:41;3.30;;;1.30;;
35971;SDS011;22052;0.000;0.000;2023-02-04T04:50:07;2.47;;;1.45;;
35971;SDS011;22052;0.000;0.000;2023-02-04T04:52:34;4.07;;;1.70;;
35971;SDS011;22052;0.000;0.000;2023-02-04T04:55:00;3.85;;;1.55;;
35971;SDS011;22052;0.000;0.000;2023-02-04T04:57:26;3.35;;;1.50;;
35971;SDS011;22052;0.000;0.000;2023-02-04T04:59:52;2.22;;;1.38;;
35971;SDS011;22052;0.000;0.000;2023-02-04T05:02:18;2.75;;;1.23;;
35971;SDS011;22052;0.000;0.000;2023-02-04T05:04:45;2.88;;;1.48;;
35971;SDS011;22052;0.000;0.000;2023-02-04T05:07:11;4.45;;;1.77;;
35971;SDS011;22052;0.000;0.000;2023-02-04T05:09:37;3.60;;;1.73;;
35971;SDS011;22052;0.000;0.000;2023-02-04T05:12:03;2.90;;;1.30;;
35971;SDS011;22052;0.000;0.000;2023-02-04T05:14:30;2.70;;;1.35;;
35971;SDS011;22052;0.000;0.000;2023-02-04T05:16:56;3.72;;;1.52;;
35971;SDS011;22052;0.000;0.000;2023-02-04T05:19:22;3.60;;;1.30;;
35971;SDS011;22052;0.000;0.000;2023-02-04T05:21:48;4.68;;;1.30;;
35971;SDS011;22052;0.000;0.000;2023-02-04T05:24:14;2.47;;;1.40;;
35971;SDS011;22052;0.000;0.000;2023-02-04T05:26:41;3.15;;;1.45;;
35971;SDS011;22052;0.000;0.000;2023-02-04T05:29:07;2.75;;;1.20;;
35971;SDS011;22052;0.000;0.000;2023-02-04T05:31:34;2.42;;;1.27;;
35971;SDS011;22052;0.000;0.000;2023-02-04T05:34:00;3.67;;;1.60;;
35971;SDS011;22052;0.000;0.000;2023-02-04T05:36:27;2.63;;;1.27;;
35971;SDS011;22052;0.000;0.000;2023-02-04T05:38:53;2.75;;;1.48;;
35971;SDS011;22052;0.000;0.000;2023-02-04T05:41:19;2.65;;;1.40;;
35971;SDS011;22052;0.000;0.000;2023-02-04T05:43:45;2.88;;;1.33;;
35971;SDS011;22052;0.000;0.000;2023-02-04T05:46:11;2.10;;;1.20;;
35971;SDS011;22052;0.000;0.000;2023-02-04T05:48:38;3.60;;;1.40;;
35971;SDS011;22052;0.000;0.000;2023-02-04T05:51:04;3.80;;;1.60;;
35971;SDS011;22052;0.000;0.000;2023-02-04T05:53:30;2.60;;;1.33;;
35971;SDS011;22052;0.000;0.000;2023-02-04T05:55:56;2.53;;;1.17;;
35971;SDS011;22052;0.000;0.000;2023-02-04T05:58:23;2.67;;;1.42;;
35971;SDS011;22052;0.000;0.000;2023-02-04T06:00:49;3.05;;;1.48;;
35971;SDS011;22052;0.000;0.000;2023-02-04T06:03:15;3.05;;;1.50;;
35971;SDS011;22052;0.000;0.000;2023-02-04T06:05:43;2.63;;;1.30;;
35971;SDS011;22052;0.000;0.000;2023-02-04T06:08:09;2.22;;;1.10;;
35971;SDS011;22052;0.000;0.000;2023-02-04T06:10:35;2.83;;;1.10;;
35971;SDS011;22052;0.000;0.000;2023-02-04T06:13:01;2.53;;;1.20;;
35971;SDS011;22052;0.000;0.000;2023-02-04T06:15:28;2.50;;;1.30;;
35971;SDS011;22052;0.000;0.000;2023-02-04T06:17:54;2.92;;;1.40;;
35971;SDS011;22052;0.000;0.000;2023-02-04T06:20:20;2.90;;;1.23;;
35971;SDS011;22052;0.000;0.000;2023-02-04T06:22:46;2.08;;;1.30;;
35971;SDS011;22052;0.000;0.000;2023-02-04T06:25:15;2.33;;;1.15;;
35971;SDS011;22052;0.000;0.000;2023-02-04T06:27:41;2.00;;;1.27;;
35971;SDS011;22052;0.000;0.000;2023-02-04T06:30:08;2.17;;;1.00;;
35971;SDS011;22052;0.000;0.000;2023-02-04T06:32:35;2.25;;;1.10;;
35971;SDS011;22052;0.000;0.000;2023-02-04T06:35:01;2.22;;;1.30;;
35971;SDS011;22052;0.000;0.000;2023-02-04T06:37:27;2.22;;;1.05;;
35971;SDS011;22052;0.000;0.000;2023-02-04T06:39:53;1.30;;;0.85;;
35971;SDS011;22052;0.000;0.000;2023-02-04T06:42:21;1.92;;;1.10;;
35971;SDS011;22052;0.000;0.000;2023-02-04T06:44:49;1.63;;;1.00;;
35971;SDS011;22052;0.000;0.000;2023-02-04T06:47:15;2.15;;;1.13;;
35971;SDS011;22052;0.000;0.000;2023-02-04T06:49:41;2.88;;;1.27;;
35971;SDS011;22052;0.000;0.000;2023-02-04T06:52:07;2.40;;;1.27;;
35971;SDS011;22052;0.000;0.000;2023-02-04T06:54:34;2.67;;;1.13;;
35971;SDS011;22052;0.000;0.000;2023-02-04T06:57:00;2.53;;;1.40;;
35971;SDS011;22052;0.000;0.000;2023-02-04T06:59:36;2.20;;;1.10;;
35971;SDS011;22052;0.000;0.000;2023-02-04T07:02:02;1.90;;;1.02;;
35971;SDS011;22052;0.000;0.000;2023-02-04T07:04:29;1.95;;;1.15;;
35971;SDS011;22052;0.000;0.000;2023-02-04T07:06:55;2.00;;;1.20;;
35971;SDS011;22052;0.000;0.000;2023-02-04T07:09:21;2.00;;;1.08;;
35971;SDS011;22052;0.000;0.000;2023-02-04T07:11:48;2.40;;;1.10;;
35971;SDS011;22052;0.000;0.000;2023-02-04T07:14:14;3.47;;;1.13;;
35971;SDS011;22052;0.000;0.000;2023-02-04T07:16:40;1.90;;;1.00;;
35971;SDS011;22052;0.000;0.000;2023-02-04T07:19:06;1.88;;;1.00;;
35971;SDS011;22052;0.000;0.000;2023-02-04T07:21:32;2.33;;;0.90;;
35971;SDS011;22052;0.000;0.000;2023-02-04T07:23:58;1.40;;;0.98;;
35971;SDS011;22052;0.000;0.000;2023-02-04T07:26:25;1.95;;;1.13;;
35971;SDS011;22052;0.000;0.000;2023-02-04T07:28:51;1.27;;;0.90;;
35971;SDS011;22052;0.000;0.000;2023-02-04T07:31:17;1.83;;;1.08;;
35971;SDS011;22052;0.000;0.000;2023-02-04T07:33:43;2.35;;;1.25;;
35971;SDS011;22052;0.000;0.000;2023-02-04T07:36:09;1.45;;;0.88;;
35971;SDS011;22052;0.000;0.000;2023-02-04T07:38:36;1.20;;;0.82;;
35971;SDS011;22052;0.000;0.000;2023-02-04T07:41:02;1.23;;;0.85;;
35971;SDS011;22052;0.000;0.000;2023-02-04T07:43:28;2.20;;;0.90;;
35971;SDS011;22052;0.000;0.000;2023-02-04T07:45:54;1.55;;;0.90;;
35971;SDS011;22052;0.000;0.000;2023-02-04T07:48:21;2.10;;;1.00;;
35971;SDS011;22052;0.000;0.000;2023-02-04T07:50:47;2.08;;;1.00;;
35971;SDS011;22052;0.000;0.000;2023-02-04T07:53:13;2.53;;;1.00;;
35971;SDS011;22052;0.000;0.000;2023-02-04T07:55:39;1.80;;;1.00;;
35971;SDS011;22052;0.000;0.000;2023-02-04T07:58:05;2.22;;;0.90;;
35971;SDS011;22052;0.000;0.000;2023-02-04T08:00:31;0.90;;;0.70;;
35971;SDS011;22052;0.000;0.000;2023-02-04T08:02:58;2.25;;;1.17;;
35971;SDS011;22052;0.000;0.000;2023-02-04T08:05:24;1.70;;;0.93;;
35971;SDS011;22052;0.000;0.000;2023-02-04T08:07:50;2.42;;;1.27;;
35971;SDS011;22052;0.000;0.000;2023-02-04T08:10:16;1.88;;;1.00;;
35971;SDS011;22052;0.000;0.000;2023-02-04T08:12:42;1.88;;;1.05;;
35971;SDS011;22052;0.000;0.000;2023-02-04T08:15:08;2.95;;;1.10;;
35971;SDS011;22052;0.000;0.000;2023-02-04T08:17:35;1.73;;;0.90;;
35971;SDS011;22052;0.000;0.000;2023-02-04T08:20:01;2.17;;;0.90;;
35971;SDS011;22052;0.000;0.000;2023-02-04T08:22:27;1.67;;;1.00;;
35971;SDS011;22052;0.000;0.000;2023-02-04T08:24:53;1.20;;;0.93;;
35971;SDS011;22052;0.000;0.000;2023-02-04T08:27:19;2.70;;;1.00;;
35971;SDS011;22052;0.000;0.000;2023-02-04T08:29:46;1.40;;;0.90;;
35971;SDS011;22052;0.000;0.000;2023-02-04T08:32:13;1.48;;;0.95;;
35971;SDS011;22052;0.000;0.000;2023-02-04T08:34:39;1.40;;;1.00;;
35971;SDS011;22052;0.000;0.000;2023-02-04T08:37:05;2.85;;;1.20;;
35971;SDS011;22052;0.000;0.000;2023-02-04T08:39:31;0.98;;;0.70;;
35971;SDS011;22052;0.000;0.000;2023-02-04T08:41:58;1.50;;;0.93;;
35971;SDS011;22052;0.000;0.000;2023-02-04T08:44:24;1.92;;;0.98;;
35971;SDS011;22052;0.000;0.000;2023-02-04T08:46:50;1.85;;;1.00;;
35971;SDS011;22052;0.000;0.000;2023-02-04T08:49:16;1.65;;;1.00;;
35971;SDS011;22052;0.000;0.000;2023-02-04T08:51:42;1.83;;;1.00;;
35971;SDS011;22052;0.000;0.000;2023-02-04T08:54:09;2.17;;;0.98;;
35971;SDS011;22052;0.000;0.000;2023-02-04T08:56:35;1.92;;;1.00;;
35971;SDS011;22052;0.000;0.000;2023-02-04T08:59:01;2.38;;;0.88;;
35971;SDS011;22052;0.000;0.000;2023-02-04T09:01:27;1.50;;;1.08;;
35971;SDS011;22052;0.000;0.000;2023-02-04T09:03:53;2.00;;;0.93;;
35971;SDS011;22052;0.000;0.000;2023-02-04T09:06:19;1.08;;;0.77;;
35971;SDS011;22052;0.000;0.000;2023-02-04T09:08:46;1.70;;;1.00;;
35971;SDS011;22052;0.000;0.000;2023-02-04T09:11:12;1.50;;;0.90;;
35971;SDS011;22052;0.000;0.000;2023-02-04T09:13:38;2.83;;;0.80;;
35971;SDS011;22052;0.000;0.000;2023-02-04T09:16:05;2.00;;;0.90;;
35971;SDS011;22052;0.000;0.000;2023-02-04T09:18:31;1.27;;;0.82;;
35971;SDS011;22052;0.000;0.000;2023-02-04T09:20:57;1.80;;;0.90;;
35971;SDS011;22052;0.000;0.000;2023-02-04T09:23:24;1.92;;;0.90;;
35971;SDS011;22052;0.000;0.000;2023-02-04T09:25:50;1.80;;;0.80;;
35971;SDS011;22052;0.000;0.000;2023-02-04T09:28:16;1.42;;;0.80;;
35971;SDS011;22052;0.000;0.000;2023-02-04T09:30:43;1.05;;;0.70;;
35971;SDS011;22052;0.000;0.000;2023-02-04T09:33:10;1.52;;;0.80;;
35971;SDS011;22052;0.000;0.000;2023-02-04T09:35:37;2.75;;;1.00;;
35971;SDS011;22052;0.000;0.000;2023-02-04T09:38:03;1.50;;;0.73;;
35971;SDS011;22052;0.000;0.000;2023-02-04T09:40:30;1.60;;;0.93;;
35971;SDS011;22052;0.000;0.000;2023-02-04T09:42:59;1.92;;;1.05;;
35971;SDS011;22052;0.000;0.000;2023-02-04T09:45:26;1.08;;;0.80;;
35971;SDS011;22052;0.000;0.000;2023-02-04T09:47:53;1.75;;;0.80;;
35971;SDS011;22052;0.000;0.000;2023-02-04T09:50:20;1.77;;;1.00;;
35971;SDS011;22052;0.000;0.000;2023-02-04T09:52:48;1.52;;;0.90;;
35971;SDS011;22052;0.000;0.000;2023-02-04T09:55:16;1.58;;;0.80;;
35971;SDS011;22052;0.000;0.000;2023-02-04T09:57:42;2.10;;;0.80;;
35971;SDS011;22052;0.000;0.000;2023-02-04T10:00:19;1.95;;;0.80;;
35971;SDS011;22052;0.000;0.000;2023-02-04T10:02:45;1.05;;;0.75;;
35971;SDS011;22052;0.000;0.000;2023-02-04T10:05:16;1.15;;;0.70;;
35971;SDS011;22052;0.000;0.000;2023-02-04T10:07:43;1.27;;;0.73;;
35971;SDS011;22052;0.000;0.000;2023-02-04T10:10:15;1.77;;;0.98;;
35971;SDS011;22052;0.000;0.000;2023-02-04T10:12:41;1.15;;;0.70;;
35971;SDS011;22052;0.000;0.000;2023-02-04T10:15:11;1.75;;;1.02;;
35971;SDS011;22052;0.000;0.000;2023-02-04T10:17:38;1.73;;;0.80;;
35971;SDS011;22052;0.000;0.000;2023-02-04T10:20:04;2.83;;;0.90;;
35971;SDS011;22052;0.000;0.000;2023-02-04T10:22:31;1.27;;;0.80;;
35971;SDS011;22052;0.000;0.000;2023-02-04T10:24:58;1.20;;;0.80;;
35971;SDS011;22052;0.000;0.000;2023-02-04T10:27:24;1.73;;;0.80;;
35971;SDS011;22052;0.000;0.000;2023-02-04T10:29:56;1.42;;;0.70;;
35971;SDS011;22052;0.000;0.000;2023-02-04T10:32:27;1.80;;;0.75;;
35971;SDS011;22052;0.000;0.000;2023-02-04T10:34:59;2.67;;;0.75;;
35971;SDS011;22052;0.000;0.000;2023-02-04T10:37:25;1.77;;;0.82;;
35971;SDS011;22052;0.000;0.000;2023-02-04T10:39:52;1.90;;;0.93;;
35971;SDS011;22052;0.000;0.000;2023-02-04T10:42:22;2.40;;;1.00;;
35971;SDS011;22052;0.000;0.000;2023-02-04T10:44:48;3.47;;;1.10;;
35971;SDS011;22052;0.000;0.000;2023-02-04T10:47:18;0.95;;;0.60;;
35971;SDS011;22052;0.000;0.000;2023-02-04T10:49:55;1.60;;;0.85;;
35971;SDS011;22052;0.000;0.000;2023-02-04T10:52:23;1.65;;;0.80;;
35971;SDS011;22052;0.000;0.000;2023-02-04T10:54:51;0.90;;;0.70;;
35971;SDS011;22052;0.000;0.000;2023-02-04T10:59:50;2.08;;;0.80;;
35971;SDS011;22052;0.000;0.000;2023-02-04T11:04:46;1.15;;;0.70;;
35971;SDS011;22052;0.000;0.000;2023-02-04T11:07:12;1.42;;;0.93;;
35971;SDS011;22052;0.000;0.000;2023-02-04T11:09:42;1.27;;;0.75;;
35971;SDS011;22052;0.000;0.000;2023-02-04T11:12:21;1.52;;;0.77;;
35971;SDS011;22052;0.000;0.000;2023-02-04T11:14:54;1.15;;;0.75;;
35971;SDS011;22052;0.000;0.000;2023-02-04T11:17:27;2.15;;;0.80;;
35971;SDS011;22052;0.000;0.000;2023-02-04T11:19:54;3.05;;;0.93;;
35971;SDS011;22052;0.000;0.000;2023-02-04T11:23:14;1.33;;;0.88;;
35971;SDS011;22052;0.000;0.000;2023-02-04T11:27:58;1.20;;;0.68;;
35971;SDS011;22052;0.000;0.000;2023-02-04T11:30:29;1.35;;;0.73;;
35971;SDS011;22052;0.000;0.000;2023-02-04T11:33:03;1.10;;;0.80;;
35971;SDS011;22052;0.000;0.000;2023-02-04T11:35:29;2.33;;;0.85;;
35971;SDS011;22052;0.000;0.000;2023-02-04T11:37:56;1.40;;;0.88;;
35971;SDS011;22052;0.000;0.000;2023-02-04T11:42:49;1.10;;;0.68;;
35971;SDS011;22052;0.000;0.000;2023-02-04T11:45:16;1.70;;;0.90;;
35971;SDS011;22052;0.000;0.000;2023-02-04T11:47:44;1.33;;;0.75;;
35971;SDS011;22052;0.000;0.000;2023-02-04T11:50:28;1.88;;;0.90;;
35971;SDS011;22052;0.000;0.000;2023-02-04T11:52:55;1.10;;;0.80;;
35971;SDS011;22052;0.000;0.000;2023-02-04T11:55:22;1.48;;;0.80;;
35971;SDS011;22052;0.000;0.000;2023-02-04T11:57:52;1.73;;;0.80;;
35971;SDS011;22052;0.000;0.000;2023-02-04T12:00:19;1.85;;;1.00;;
35971;SDS011;22052;0.000;0.000;2023-02-04T12:02:47;1.10;;;0.80;;
35971;SDS011;22052;0.000;0.000;2023-02-04T12:05:15;1.30;;;0.80;;
35971;SDS011;22052;0.000;0.000;2023-02-04T12:07:42;1.27;;;0.88;;
35971;SDS011;22052;0.000;0.000;2023-02-04T12:10:22;1.17;;;0.77;;
35971;SDS011;22052;0.000;0.000;2023-02-04T12:12:53;1.95;;;0.70;;
35971;SDS011;22052;0.000;0.000;2023-02-04T12:15:39;1.40;;;0.77;;
35971;SDS011;22052;0.000;0.000;2023-02-04T12:18:09;1.27;;;0.68;;
35971;SDS011;22052;0.000;0.000;2023-02-04T12:20:40;1.27;;;0.80;;
35971;SDS011;22052;0.000;0.000;2023-02-04T12:23:06;2.72;;;0.82;;
35971;SDS011;22052;0.000;0.000;2023-02-04T12:25:32;1.63;;;0.73;;
35971;SDS011;22052;0.000;0.000;2023-02-04T12:27:59;1.00;;;0.63;;
35971;SDS011;22052;0.000;0.000;2023-02-04T12:30:25;1.60;;;0.70;;
35971;SDS011;22052;0.000;0.000;2023-02-04T12:32:52;0.60;;;0.60;;
35971;SDS011;22052;0.000;0.000;2023-02-04T12:35:18;1.25;;;0.90;;
35971;SDS011;22052;0.000;0.000;2023-02-04T12:37:44;1.13;;;0.77;;
35971;SDS011;22052;0.000;0.000;2023-02-04T12:40:17;0.82;;;0.70;;
35971;SDS011;22052;0.000;0.000;2023-02-04T12:42:43;0.60;;;0.60;;
35971;SDS011;22052;0.000;0.000;2023-02-04T12:45:10;3.97;;;0.80;;
35971;SDS011;22052;0.000;0.000;2023-02-04T12:47:37;1.33;;;0.70;;
35971;SDS011;22052;0.000;0.000;2023-02-04T12:50:04;1.58;;;0.82;;
35971;SDS011;22052;0.000;0.000;2023-02-04T12:52:30;1.48;;;0.77;;
35971;SDS011;22052;0.000;0.000;2023-02-04T12:54:56;1.23;;;0.70;;
35971;SDS011;22052;0.000;0.000;2023-02-04T12:57:24;1.33;;;0.80;;
35971;SDS011;22052;0.000;0.000;2023-02-04T12:59:50;1.38;;;0.80;;
35971;SDS011;22052;0.000;0.000;2023-02-04T13:02:17;1.10;;;0.65;;
35971;SDS011;22052;0.000;0.000;2023-02-04T13:04:43;1.33;;;0.80;;
35971;SDS011;22052;0.000;0.000;2023-02-04T13:07:09;1.10;;;0.80;;
35971;SDS011;22052;0.000;0.000;2023-02-04T13:09:35;2.15;;;0.80;;
35971;SDS011;22052;0.000;0.000;2023-02-04T13:12:02;0.98;;;0.60;;
35971;SDS011;22052;0.000;0.000;2023-02-04T13:14:28;2.10;;;1.02;;
35971;SDS011;22052;0.000;0.000;2023-02-04T13:16:56;1.40;;;0.70;;
35971;SDS011;22052;0.000;0.000;2023-02-04T13:19:22;0.90;;;0.70;;
35971;SDS011;22052;0.000;0.000;2023-02-04T13:21:48;1.38;;;0.70;;
35971;SDS011;22052;0.000;0.000;2023-02-04T13:24:15;2.50;;;0.93;;
35971;SDS011;22052;0.000;0.000;2023-02-04T13:26:41;1.98;;;0.82;;
35971;SDS011;22052;0.000;0.000;2023-02-04T13:29:07;2.00;;;0.77;;
35971;SDS011;22052;0.000;0.000;2023-02-04T13:31:34;2.63;;;0.80;;
35971;SDS011;22052;0.000;0.000;2023-02-04T13:34:00;1.35;;;0.80;;
35971;SDS011;22052;0.000;0.000;2023-02-04T13:36:26;3.13;;;0.75;;
35971;SDS011;22052;0.000;0.000;2023-02-04T13:38:54;1.45;;;0.70;;
35971;SDS011;22052;0.000;0.000;2023-02-04T13:41:21;1.50;;;0.70;;
35971;SDS011;22052;0.000;0.000;2023-02-04T13:43:47;2.03;;;0.80;;
35971;SDS011;22052;0.000;0.000;2023-02-04T13:46:13;1.60;;;0.65;;
35971;SDS011;22052;0.000;0.000;2023-02-04T13:48:39;2.55;;;0.85;;
35971;SDS011;22052;0.000;0.000;2023-02-04T13:51:05;0.93;;;0.70;;
35971;SDS011;22052;0.000;0.000;2023-02-04T13:53:31;0.95;;;0.70;;
35971;SDS011;22052;0.000;0.000;2023-02-04T13:55:58;1.02;;;0.70;;
35971;SDS011;22052;0.000;0.000;2023-02-04T13:58:25;1.15;;;0.75;;
35971;SDS011;22052;0.000;0.000;2023-02-04T14:00:51;1.83;;;0.80;;
35971;SDS011;22052;0.000;0.000;2023-02-04T14:03:30;1.05;;;0.65;;
35971;SDS011;22052;0.000;0.000;2023-02-04T14:05:56;1.13;;;0.80;;
35971;SDS011;22052;0.000;0.000;2023-02-04T14:08:22;0.90;;;0.70;;
35971;SDS011;22052;0.000;0.000;2023-02-04T14:10:48;0.70;;;0.70;;
35971;SDS011;22052;0.000;0.000;2023-02-04T14:13:15;2.00;;;0.70;;
35971;SDS011;22052;0.000;0.000;2023-02-04T14:15:41;1.67;;;0.80;;
35971;SDS011;22052;0.000;0.000;2023-02-04T14:18:07;1.45;;;0.70;;
35971;SDS011;22052;0.000;0.000;2023-02-04T14:20:34;2.72;;;0.70;;
35971;SDS011;22052;0.000;0.000;2023-02-04T14:23:00;1.30;;;0.70;;
35971;SDS011;22052;0.000;0.000;2023-02-04T14:25:26;1.00;;;0.60;;
35971;SDS011;22052;0.000;0.000;2023-02-04T14:27:53;1.00;;;0.57;;
35971;SDS011;22052;0.000;0.000;2023-02-04T14:30:21;1.40;;;0.70;;
35971;SDS011;22052;0.000;0.000;2023-02-04T14:32:48;0.75;;;0.68;;
35971;SDS011;22052;0.000;0.000;2023-02-04T14:35:14;0.95;;;0.70;;
35971;SDS011;22052;0.000;0.000;2023-02-04T14:37:41;2.03;;;0.85;;
35971;SDS011;22052;0.000;0.000;2023-02-04T14:40:08;1.30;;;0.70;;
35971;SDS011;22052;0.000;0.000;2023-02-04T14:42:34;1.67;;;0.80;;
35971;SDS011;22052;0.000;0.000;2023-02-04T14:45:03;0.90;;;0.70;;
35971;SDS011;22052;0.000;0.000;2023-02-04T14:47:32;1.65;;;0.68;;
35971;SDS011;22052;0.000;0.000;2023-02-04T14:49:58;0.80;;;0.52;;
35971;SDS011;22052;0.000;0.000;2023-02-04T14:52:24;0.60;;;0.50;;
35971;SDS011;22052;0.000;0.000;2023-02-04T14:54:50;1.33;;;0.70;;
35971;SDS011;22052;0.000;0.000;2023-02-04T14:57:17;1.38;;;0.73;;
35971;SDS011;22052;0.000;0.000;2023-02-04T14:59:43;1.27;;;0.73;;
35971;SDS011;22052;0.000;0.000;2023-02-04T15:02:09;2.25;;;0.90;;
35971;SDS011;22052;0.000;0.000;2023-02-04T15:04:38;1.17;;;0.70;;
35971;SDS011;22052;0.000;0.000;2023-02-04T15:07:04;0.60;;;0.52;;
35971;SDS011;22052;0.000;0.000;2023-02-04T15:09:31;1.10;;;0.73;;
35971;SDS011;22052;0.000;0.000;2023-02-04T15:11:57;1.35;;;0.70;;